logo
Search for airport 
image banner adimage banner adimage banner ad
image banner ad

YXEA - Eadglehawk Neck Medical

Located in , Australia

ICAO - , IATA -

Data provided by Airmate  

General information

Coordinates: S43°0'54" E147°55'32"
Elevation is 13 feet MSL.
 
View others Airports in Tasmania

Operational data

Special qualification required
Current time UTC:
Current local time:
Weather at : YMHB - Hobart ( 39 km )
METAR: YMHB 171900Z AUTO 32007KT 9999 // BKN012 BKN039 BKN047 06/06 Q1020
TAF: TAF AMD YMHB 171811Z 1718/1818 31005KT 9999 -SHRA SCT015 BKN022 BECMG 1800/1802 21006KT 9999 -SHRA SCT030 SCT040 FM181200 31006KT 9999 -SHRA SCT020 BKN030 TEMPO 1718/1800 3500 SHRA FEW004 BKN012 BKN020 INTER 1812/1818 4000 SHRA BKN015 BKN025
View NOTAMs / SUP AIP / TFR affecting this airport [VIEW]
Communications frequencies: [VIEW]

Runways:

Airport contact information

Address: Australia

Satellite view of YXEA